sensor_id;sensor_type;location;lat;lon;timestamp;temperature;humidity
11619;DHT22;5865;48.776;9.280;2023-12-04T00:49:43;-7.50;99.90
11619;DHT22;5865;48.776;9.280;2023-12-04T00:52:35;-7.50;99.90
11619;DHT22;5865;48.776;9.280;2023-12-04T01:48:29;-7.00;99.90
11619;DHT22;5865;48.776;9.280;2023-12-04T01:50:58;-7.00;99.90
11619;DHT22;5865;48.776;9.280;2023-12-04T01:53:42;-7.10;99.90
11619;DHT22;5865;48.776;9.280;2023-12-04T01:56:11;-7.10;99.90
11619;DHT22;5865;48.776;9.280;2023-12-04T01:58:40;-7.00;99.90
11619;DHT22;5865;48.776;9.280;2023-12-04T02:01:09;-7.10;99.90
11619;DHT22;5865;48.776;9.280;2023-12-04T02:04:14;-6.90;99.90
11619;DHT22;5865;48.776;9.280;2023-12-04T02:06:41;-6.90;99.90
11619;DHT22;5865;48.776;9.280;2023-12-04T02:12:04;-6.50;99.90
11619;DHT22;5865;48.776;9.280;2023-12-04T02:17:01;-6.70;99.90
11619;DHT22;5865;48.776;9.280;2023-12-04T02:19:49;-6.70;99.90
11619;DHT22;5865;48.776;9.280;2023-12-04T02:22:30;-6.80;99.90
11619;DHT22;5865;48.776;9.280;2023-12-04T02:28:17;-6.90;99.90
11619;DHT22;5865;48.776;9.280;2023-12-04T02:30:47;-7.00;99.90
11619;DHT22;5865;48.776;9.280;2023-12-04T02:33:17;-7.10;99.90
11619;DHT22;5865;48.776;9.280;2023-12-04T02:36:01;-7.20;99.90
11619;DHT22;5865;48.776;9.280;2023-12-04T02:38:29;-7.10;99.90
11619;DHT22;5865;48.776;9.280;2023-12-04T02:41:11;-7.20;99.90
11619;DHT22;5865;48.776;9.280;2023-12-04T02:43:50;-7.00;99.90
11619;DHT22;5865;48.776;9.280;2023-12-04T02:46:17;-7.20;99.90
11619;DHT22;5865;48.776;9.280;2023-12-04T02:48:58;-7.30;99.90
11619;DHT22;5865;48.776;9.280;2023-12-04T02:51:25;-7.00;99.90
11619;DHT22;5865;48.776;9.280;2023-12-04T02:54:06;-7.00;99.90
11619;DHT22;5865;48.776;9.280;2023-12-04T02:56:34;-7.00;99.90
11619;DHT22;5865;48.776;9.280;2023-12-04T02:59:22;-6.80;99.90
11619;DHT22;5865;48.776;9.280;2023-12-04T03:01:50;-6.80;99.90
11619;DHT22;5865;48.776;9.280;2023-12-04T03:04:20;-6.90;99.90
11619;DHT22;5865;48.776;9.280;2023-12-04T03:06:54;-6.60;99.90
11619;DHT22;5865;48.776;9.280;2023-12-04T03:09:22;-3.40;99.90
11619;DHT22;5865;48.776;9.280;2023-12-04T03:24:20;-6.90;99.90
11619;DHT22;5865;48.776;9.280;2023-12-04T03:27:01;-6.80;99.90
11619;DHT22;5865;48.776;9.280;2023-12-04T03:29:42;-6.80;99.90
11619;DHT22;5865;48.776;9.280;2023-12-04T03:32:26;-6.70;99.90
11619;DHT22;5865;48.776;9.280;2023-12-04T03:34:54;-6.70;99.90
11619;DHT22;5865;48.776;9.280;2023-12-04T03:37:26;-6.70;99.90
11619;DHT22;5865;48.776;9.280;2023-12-04T03:39:55;-6.70;99.90
11619;DHT22;5865;48.776;9.280;2023-12-04T03:45:05;-6.70;99.90
11619;DHT22;5865;48.776;9.280;2023-12-04T03:47:38;-6.70;99.90
11619;DHT22;5865;48.776;9.280;2023-12-04T03:50:06;-6.70;99.90
11619;DHT22;5865;48.776;9.280;2023-12-04T03:52:35;-6.50;99.90
11619;DHT22;5865;48.776;9.280;2023-12-04T03:58:32;-6.40;99.90
11619;DHT22;5865;48.776;9.280;2023-12-04T04:01:13;-6.50;99.90
11619;DHT22;5865;48.776;9.280;2023-12-04T04:03:55;-6.30;99.90
11619;DHT22;5865;48.776;9.280;2023-12-04T04:06:22;-6.30;99.90
11619;DHT22;5865;48.776;9.280;2023-12-04T04:08:50;-6.20;99.90
11619;DHT22;5865;48.776;9.280;2023-12-04T04:11:31;-4.50;99.90
11619;DHT22;5865;48.776;9.280;2023-12-04T04:14:19;-6.10;99.90
11619;DHT22;5865;48.776;9.280;2023-12-04T04:16:46;-5.90;99.90
11619;DHT22;5865;48.776;9.280;2023-12-04T04:19:13;-5.90;99.90
11619;DHT22;5865;48.776;9.280;2023-12-04T04:21:54;-5.90;99.90
11619;DHT22;5865;48.776;9.280;2023-12-04T04:24:34;-5.90;99.90
11619;DHT22;5865;48.776;9.280;2023-12-04T04:27:04;-5.90;99.90
11619;DHT22;5865;48.776;9.280;2023-12-04T04:29:32;-5.60;99.90
11619;DHT22;5865;48.776;9.280;2023-12-04T04:31:59;-5.60;99.90
11619;DHT22;5865;48.776;9.280;2023-12-04T04:36:59;-5.80;99.90
11619;DHT22;5865;48.776;9.280;2023-12-04T04:39:40;-4.50;99.90
11619;DHT22;5865;48.776;9.280;2023-12-04T04:42:21;-5.80;99.90
11619;DHT22;5865;48.776;9.280;2023-12-04T04:45:14;-5.80;99.90
11619;DHT22;5865;48.776;9.280;2023-12-04T04:47:42;-4.80;99.90
11619;DHT22;5865;48.776;9.280;2023-12-04T04:50:18;-5.80;99.90
11619;DHT22;5865;48.776;9.280;2023-12-04T04:52:46;-5.70;99.90
11619;DHT22;5865;48.776;9.280;2023-12-04T04:55:15;-4.40;99.90
11619;DHT22;5865;48.776;9.280;2023-12-04T04:57:55;-5.90;99.90
11619;DHT22;5865;48.776;9.280;2023-12-04T05:00:26;-5.90;99.90
11619;DHT22;5865;48.776;9.280;2023-12-04T05:03:07;-5.90;99.90
11619;DHT22;5865;48.776;9.280;2023-12-04T05:05:48;-5.90;99.90
11619;DHT22;5865;48.776;9.280;2023-12-04T05:08:29;-5.80;99.90
11619;DHT22;5865;48.776;9.280;2023-12-04T05:11:09;-5.90;99.90
11619;DHT22;5865;48.776;9.280;2023-12-04T05:13:45;-5.80;99.90
11619;DHT22;5865;48.776;9.280;2023-12-04T05:16:43;-5.80;99.90
11619;DHT22;5865;48.776;9.280;2023-12-04T05:19:24;-5.00;99.90
11619;DHT22;5865;48.776;9.280;2023-12-04T05:21:52;-5.60;99.90
11619;DHT22;5865;48.776;9.280;2023-12-04T05:29:55;-4.70;99.90
11619;DHT22;5865;48.776;9.280;2023-12-04T05:32:24;-5.10;99.90
11619;DHT22;5865;48.776;9.280;2023-12-04T05:34:51;-5.10;99.90
11619;DHT22;5865;48.776;9.280;2023-12-04T05:37:19;-5.00;99.90
11619;DHT22;5865;48.776;9.280;2023-12-04T05:42:48;-5.20;99.90
11619;DHT22;5865;48.776;9.280;2023-12-04T05:48:13;-5.30;99.90
11619;DHT22;5865;48.776;9.280;2023-12-04T05:50:40;-5.30;99.90
11619;DHT22;5865;48.776;9.280;2023-12-04T05:53:07;-5.30;99.90
11619;DHT22;5865;48.776;9.280;2023-12-04T05:55:43;-5.40;99.90
11619;DHT22;5865;48.776;9.280;2023-12-04T05:58:24;-5.40;99.90
11619;DHT22;5865;48.776;9.280;2023-12-04T06:00:52;-5.30;99.90
11619;DHT22;5865;48.776;9.280;2023-12-04T06:03:20;-5.30;99.90
11619;DHT22;5865;48.776;9.280;2023-12-04T06:05:55;-5.40;99.90
11619;DHT22;5865;48.776;9.280;2023-12-04T06:08:22;-5.30;99.90
11619;DHT22;5865;48.776;9.280;2023-12-04T06:10:49;-5.30;99.90
11619;DHT22;5865;48.776;9.280;2023-12-04T06:13:20;-5.20;99.90
11619;DHT22;5865;48.776;9.280;2023-12-04T06:16:03;-5.30;99.90
11619;DHT22;5865;48.776;9.280;2023-12-04T06:18:57;-5.10;99.90
11619;DHT22;5865;48.776;9.280;2023-12-04T06:21:25;-5.10;99.90
11619;DHT22;5865;48.776;9.280;2023-12-04T06:23:53;-5.20;99.90
11619;DHT22;5865;48.776;9.280;2023-12-04T06:26:20;-5.20;99.90
11619;DHT22;5865;48.776;9.280;2023-12-04T06:28:48;-5.10;99.90
11619;DHT22;5865;48.776;9.280;2023-12-04T06:31:15;-5.10;99.90
11619;DHT22;5865;48.776;9.280;2023-12-04T06:33:43;-5.20;99.90
11619;DHT22;5865;48.776;9.280;2023-12-04T06:36:18;-5.10;99.90
11619;DHT22;5865;48.776;9.280;2023-12-04T06:38:47;-5.10;99.90
11619;DHT22;5865;48.776;9.280;2023-12-04T06:41:15;-5.10;99.90
11619;DHT22;5865;48.776;9.280;2023-12-04T06:43:56;-5.10;99.90
11619;DHT22;5865;48.776;9.280;2023-12-04T06:46:24;-5.10;99.90
11619;DHT22;5865;48.776;9.280;2023-12-04T06:49:09;-5.10;99.90
11619;DHT22;5865;48.776;9.280;2023-12-04T06:51:46;-4.80;99.90
11619;DHT22;5865;48.776;9.280;2023-12-04T06:54:27;-5.00;99.90
11619;DHT22;5865;48.776;9.280;2023-12-04T06:56:54;-5.00;99.90
11619;DHT22;5865;48.776;9.280;2023-12-04T06:59:21;-5.00;99.90
11619;DHT22;5865;48.776;9.280;2023-12-04T07:01:48;-4.90;99.90
11619;DHT22;5865;48.776;9.280;2023-12-04T07:04:15;-4.90;99.90
11619;DHT22;5865;48.776;9.280;2023-12-04T07:06:48;-4.90;99.90
11619;DHT22;5865;48.776;9.280;2023-12-04T07:09:15;-4.70;99.90
11619;DHT22;5865;48.776;9.280;2023-12-04T07:11:43;-4.70;99.90
11619;DHT22;5865;48.776;9.280;2023-12-04T07:14:10;-4.70;99.90
11619;DHT22;5865;48.776;9.280;2023-12-04T07:16:44;-4.50;99.90
11619;DHT22;5865;48.776;9.280;2023-12-04T07:19:25;-4.40;99.90
11619;DHT22;5865;48.776;9.280;2023-12-04T07:21:55;-4.40;99.90
11619;DHT22;5865;48.776;9.280;2023-12-04T07:24:21;-4.40;99.90
11619;DHT22;5865;48.776;9.280;2023-12-04T07:26:49;-4.40;99.90
11619;DHT22;5865;48.776;9.280;2023-12-04T07:29:16;-4.30;99.90
11619;DHT22;5865;48.776;9.280;2023-12-04T07:31:43;-4.20;99.90
11619;DHT22;5865;48.776;9.280;2023-12-04T07:34:12;-4.30;99.90
11619;DHT22;5865;48.776;9.280;2023-12-04T07:36:47;-4.30;99.90
11619;DHT22;5865;48.776;9.280;2023-12-04T07:39:16;-4.20;99.90
11619;DHT22;5865;48.776;9.280;2023-12-04T07:41:46;-4.20;99.90
11619;DHT22;5865;48.776;9.280;2023-12-04T07:46:41;-4.10;99.90
11619;DHT22;5865;48.776;9.280;2023-12-04T07:49:08;-4.10;99.90
11619;DHT22;5865;48.776;9.280;2023-12-04T07:51:35;-4.00;99.90
11619;DHT22;5865;48.776;9.280;2023-12-04T07:54:04;-3.90;99.90
11619;DHT22;5865;48.776;9.280;2023-12-04T08:01:31;-3.80;99.90
11619;DHT22;5865;48.776;9.280;2023-12-04T08:43:31;-3.50;99.90
11619;DHT22;5865;48.776;9.280;2023-12-04T08:55:50;-3.10;99.90
11619;DHT22;5865;48.776;9.280;2023-12-04T08:58:18;-3.00;99.90
11619;DHT22;5865;48.776;9.280;2023-12-04T09:08:09;-2.90;99.90
11619;DHT22;5865;48.776;9.280;2023-12-04T09:10:36;-2.80;99.90
11619;DHT22;5865;48.776;9.280;2023-12-04T09:13:04;-2.70;99.90
11619;DHT22;5865;48.776;9.280;2023-12-04T09:15:32;-2.60;99.90
11619;DHT22;5865;48.776;9.280;2023-12-04T09:17:58;1.30;99.90
11619;DHT22;5865;48.776;9.280;2023-12-04T09:20:26;-2.60;99.90
11619;DHT22;5865;48.776;9.280;2023-12-04T09:25:23;-2.40;99.90
11619;DHT22;5865;48.776;9.280;2023-12-04T09:30:19;-2.60;99.90
11619;DHT22;5865;48.776;9.280;2023-12-04T09:32:45;-2.20;99.90
11619;DHT22;5865;48.776;9.280;2023-12-04T09:35:13;-2.20;99.90
11619;DHT22;5865;48.776;9.280;2023-12-04T09:37:44;-2.00;99.90
11619;DHT22;5865;48.776;9.280;2023-12-04T09:40:17;-1.90;99.90
11619;DHT22;5865;48.776;9.280;2023-12-04T09:57:51;-2.10;99.90
11619;DHT22;5865;48.776;9.280;2023-12-04T10:00:20;-2.10;99.90
11619;DHT22;5865;48.776;9.280;2023-12-04T10:02:48;-2.10;99.90
11619;DHT22;5865;48.776;9.280;2023-12-04T10:05:16;-2.10;99.90
11619;DHT22;5865;48.776;9.280;2023-12-04T10:12:42;-1.70;99.90
11619;DHT22;5865;48.776;9.280;2023-12-04T10:15:11;-1.70;99.90
11619;DHT22;5865;48.776;9.280;2023-12-04T10:17:39;-0.40;99.90
11619;DHT22;5865;48.776;9.280;2023-12-04T10:20:10;-1.80;99.90
11619;DHT22;5865;48.776;9.280;2023-12-04T10:22:53;-1.80;99.90
11619;DHT22;5865;48.776;9.280;2023-12-04T10:25:25;-1.30;99.90
11619;DHT22;5865;48.776;9.280;2023-12-04T10:28:07;-1.30;99.90
11619;DHT22;5865;48.776;9.280;2023-12-04T10:30:34;-1.30;99.90
11619;DHT22;5865;48.776;9.280;2023-12-04T10:33:04;-1.20;99.90
11619;DHT22;5865;48.776;9.280;2023-12-04T10:35:32;-1.20;99.90
11619;DHT22;5865;48.776;9.280;2023-12-04T10:38:02;-1.10;99.90
11619;DHT22;5865;48.776;9.280;2023-12-04T10:40:30;-1.10;99.90
11619;DHT22;5865;48.776;9.280;2023-12-04T10:43:15;-1.10;99.90
11619;DHT22;5865;48.776;9.280;2023-12-04T10:45:44;-0.90;99.90
11619;DHT22;5865;48.776;9.280;2023-12-04T10:48:12;-1.10;99.90
11619;DHT22;5865;48.776;9.280;2023-12-04T10:50:42;-0.60;99.90
11619;DHT22;5865;48.776;9.280;2023-12-04T10:53:11;-0.50;99.90
11619;DHT22;5865;48.776;9.280;2023-12-04T10:55:39;-0.60;99.90
11619;DHT22;5865;48.776;9.280;2023-12-04T10:58:13;-0.50;99.90
11619;DHT22;5865;48.776;9.280;2023-12-04T11:00:44;-0.30;99.90
11619;DHT22;5865;48.776;9.280;2023-12-04T11:03:20;-0.20;99.90
11619;DHT22;5865;48.776;9.280;2023-12-04T11:06:00;0.00;99.90
11619;DHT22;5865;48.776;9.280;2023-12-04T11:08:29;0.30;99.90
11619;DHT22;5865;48.776;9.280;2023-12-04T11:10:57;-2.60;99.90
11619;DHT22;5865;48.776;9.280;2023-12-04T11:13:30;0.40;99.90
11619;DHT22;5865;48.776;9.280;2023-12-04T11:16:01;0.50;99.90
11619;DHT22;5865;48.776;9.280;2023-12-04T11:18:34;0.20;99.90
11619;DHT22;5865;48.776;9.280;2023-12-04T11:21:07;0.00;99.90
11619;DHT22;5865;48.776;9.280;2023-12-04T11:23:45;0.30;99.90
11619;DHT22;5865;48.776;9.280;2023-12-04T11:26:22;0.00;99.90
11619;DHT22;5865;48.776;9.280;2023-12-04T11:36:21;-0.40;99.90
11619;DHT22;5865;48.776;9.280;2023-12-04T11:41:20;-0.70;99.90
11619;DHT22;5865;48.776;9.280;2023-12-04T11:46:35;-0.60;99.90
11619;DHT22;5865;48.776;9.280;2023-12-04T11:49:26;-0.40;99.90
11619;DHT22;5865;48.776;9.280;2023-12-04T11:54:27;0.10;99.90
11619;DHT22;5865;48.776;9.280;2023-12-04T11:57:20;0.30;99.90
11619;DHT22;5865;48.776;9.280;2023-12-04T12:02:20;0.40;99.90
11619;DHT22;5865;48.776;9.280;2023-12-04T12:04:54;0.30;99.90
11619;DHT22;5865;48.776;9.280;2023-12-04T12:07:23;0.40;99.90
11619;DHT22;5865;48.776;9.280;2023-12-04T12:17:16;0.30;99.90
11619;DHT22;5865;48.776;9.280;2023-12-04T12:19:47;0.40;99.90
11619;DHT22;5865;48.776;9.280;2023-12-04T12:27:25;0.40;99.90
11619;DHT22;5865;48.776;9.280;2023-12-04T12:32:28;0.80;99.90
11619;DHT22;5865;48.776;9.280;2023-12-04T12:40:05;0.70;99.90
11619;DHT22;5865;48.776;9.280;2023-12-04T12:42:47;1.00;99.90
11619;DHT22;5865;48.776;9.280;2023-12-04T12:45:44;0.80;99.90
11619;DHT22;5865;48.776;9.280;2023-12-04T12:50:55;0.30;99.90
11619;DHT22;5865;48.776;9.280;2023-12-04T12:58:53;-0.20;99.90
11619;DHT22;5865;48.776;9.280;2023-12-04T13:03:59;-0.10;99.90
11619;DHT22;5865;48.776;9.280;2023-12-04T13:09:29;-0.20;99.90
11619;DHT22;5865;48.776;9.280;2023-12-04T13:27:43;0.40;99.90
11619;DHT22;5865;48.776;9.280;2023-12-04T13:46:26;-0.30;99.90
11619;DHT22;5865;48.776;9.280;2023-12-04T13:48:55;-0.30;99.90
11619;DHT22;5865;48.776;9.280;2023-12-04T13:51:22;2.10;99.90
11619;DHT22;5865;48.776;9.280;2023-12-04T13:53:50;-0.20;99.90
11619;DHT22;5865;48.776;9.280;2023-12-04T13:59:07;-0.40;99.90
11619;DHT22;5865;48.776;9.280;2023-12-04T14:01:42;-0.40;99.90
11619;DHT22;5865;48.776;9.280;2023-12-04T14:04:09;-0.50;99.90
11619;DHT22;5865;48.776;9.280;2023-12-04T14:06:36;-0.40;99.90
11619;DHT22;5865;48.776;9.280;2023-12-04T14:09:04;-0.10;99.90
11619;DHT22;5865;48.776;9.280;2023-12-04T14:14:02;-0.40;99.90
11619;DHT22;5865;48.776;9.280;2023-12-04T14:16:30;-0.40;99.90
11619;DHT22;5865;48.776;9.280;2023-12-04T14:18:57;-0.40;99.90
11619;DHT22;5865;48.776;9.280;2023-12-04T14:21:24;-0.50;99.90
11619;DHT22;5865;48.776;9.280;2023-12-04T14:23:51;-0.50;99.90
11619;DHT22;5865;48.776;9.280;2023-12-04T14:33:40;-0.20;99.90
11619;DHT22;5865;48.776;9.280;2023-12-04T14:36:08;-0.20;99.90
11619;DHT22;5865;48.776;9.280;2023-12-04T14:38:37;-0.30;99.90
11619;DHT22;5865;48.776;9.280;2023-12-04T14:41:05;-0.20;99.90
11619;DHT22;5865;48.776;9.280;2023-12-04T14:46:00;-0.40;99.90
11619;DHT22;5865;48.776;9.280;2023-12-04T14:48:27;-0.40;99.90
11619;DHT22;5865;48.776;9.280;2023-12-04T14:53:21;-0.30;99.90
11619;DHT22;5865;48.776;9.280;2023-12-04T14:58:41;-0.30;99.90
11619;DHT22;5865;48.776;9.280;2023-12-04T15:01:22;-0.20;99.90
11619;DHT22;5865;48.776;9.280;2023-12-04T15:04:28;-0.30;99.90
11619;DHT22;5865;48.776;9.280;2023-12-04T15:07:12;-0.40;99.90
11619;DHT22;5865;48.776;9.280;2023-12-04T15:09:55;0.70;99.90
11619;DHT22;5865;48.776;9.280;2023-12-04T15:12:45;-0.40;99.90
11619;DHT22;5865;48.776;9.280;2023-12-04T15:18:18;-0.40;99.90
11619;DHT22;5865;48.776;9.280;2023-12-04T15:25:55;-0.20;99.90
11619;DHT22;5865;48.776;9.280;2023-12-04T15:28:21;-0.30;99.90
11619;DHT22;5865;48.776;9.280;2023-12-04T15:30:49;-0.30;99.90
11619;DHT22;5865;48.776;9.280;2023-12-04T15:33:15;-0.30;99.90
11619;DHT22;5865;48.776;9.280;2023-12-04T15:35:42;-0.30;99.90
11619;DHT22;5865;48.776;9.280;2023-12-04T15:38:08;-0.30;99.90
11619;DHT22;5865;48.776;9.280;2023-12-04T15:40:35;-0.20;99.90
11619;DHT22;5865;48.776;9.280;2023-12-04T15:50:23;-0.30;99.90
11619;DHT22;5865;48.776;9.280;2023-12-04T15:52:50;-0.20;99.90
11619;DHT22;5865;48.776;9.280;2023-12-04T16:00:20;-0.10;99.90
11619;DHT22;5865;48.776;9.280;2023-12-04T16:02:46;-0.10;99.90
11619;DHT22;5865;48.776;9.280;2023-12-04T16:07:42;-0.30;99.90
11619;DHT22;5865;48.776;9.280;2023-12-04T16:10:10;-0.20;99.90
11619;DHT22;5865;48.776;9.280;2023-12-04T16:12:37;-0.20;99.90
11619;DHT22;5865;48.776;9.280;2023-12-04T16:15:08;-0.30;99.90
11619;DHT22;5865;48.776;9.280;2023-12-04T16:17:35;-0.20;99.90
11619;DHT22;5865;48.776;9.280;2023-12-04T16:20:04;-0.70;99.90
11619;DHT22;5865;48.776;9.280;2023-12-04T16:22:36;-0.10;99.90
11619;DHT22;5865;48.776;9.280;2023-12-04T16:25:05;0.10;99.90
11619;DHT22;5865;48.776;9.280;2023-12-04T16:27:33;0.00;99.90
11619;DHT22;5865;48.776;9.280;2023-12-04T16:30:00;0.00;99.90
11619;DHT22;5865;48.776;9.280;2023-12-04T16:32:27;0.10;99.90
11619;DHT22;5865;48.776;9.280;2023-12-04T16:34:54;0.10;99.90
11619;DHT22;5865;48.776;9.280;2023-12-04T16:37:31;0.10;99.90
11619;DHT22;5865;48.776;9.280;2023-12-04T16:44:54;0.20;99.90
11619;DHT22;5865;48.776;9.280;2023-12-04T16:49:48;0.30;99.90
11619;DHT22;5865;48.776;9.280;2023-12-04T16:52:17;0.30;99.90
11619;DHT22;5865;48.776;9.280;2023-12-04T16:57:13;0.20;99.90
11619;DHT22;5865;48.776;9.280;2023-12-04T16:59:41;0.30;99.90
11619;DHT22;5865;48.776;9.280;2023-12-04T17:02:07;0.30;99.90
11619;DHT22;5865;48.776;9.280;2023-12-04T17:16:53;0.40;99.90
11619;DHT22;5865;48.776;9.280;2023-12-04T17:19:32;0.40;99.90
11619;DHT22;5865;48.776;9.280;2023-12-04T17:22:01;0.40;99.90
11619;DHT22;5865;48.776;9.280;2023-12-04T17:26:56;0.40;99.90
11619;DHT22;5865;48.776;9.280;2023-12-04T17:29:25;0.40;99.90
11619;DHT22;5865;48.776;9.280;2023-12-04T17:36:51;0.50;99.90
11619;DHT22;5865;48.776;9.280;2023-12-04T17:39:20;0.50;99.90
11619;DHT22;5865;48.776;9.280;2023-12-04T17:41:47;0.60;99.90
11619;DHT22;5865;48.776;9.280;2023-12-04T17:44:14;0.50;99.90
11619;DHT22;5865;48.776;9.280;2023-12-04T17:49:15;0.60;99.90
11619;DHT22;5865;48.776;9.280;2023-12-04T17:51:50;0.10;99.90
11619;DHT22;5865;48.776;9.280;2023-12-04T17:54:20;0.10;99.90
11619;DHT22;5865;48.776;9.280;2023-12-04T17:57:01;-0.10;99.90
11619;DHT22;5865;48.776;9.280;2023-12-04T17:59:28;-0.10;99.90
11619;DHT22;5865;48.776;9.280;2023-12-04T18:01:58;-0.20;99.90
11619;DHT22;5865;48.776;9.280;2023-12-04T18:04:25;-0.20;99.90
11619;DHT22;5865;48.776;9.280;2023-12-04T18:09:24;-0.30;99.90
11619;DHT22;5865;48.776;9.280;2023-12-04T18:11:51;-0.30;99.90
11619;DHT22;5865;48.776;9.280;2023-12-04T18:26:36;-0.10;99.90
11619;DHT22;5865;48.776;9.280;2023-12-04T18:31:33;-0.10;99.90
11619;DHT22;5865;48.776;9.280;2023-12-04T18:34:01;0.10;99.90
11619;DHT22;5865;48.776;9.280;2023-12-04T18:36:34;0.30;99.90
11619;DHT22;5865;48.776;9.280;2023-12-04T18:39:02;0.30;99.90
11619;DHT22;5865;48.776;9.280;2023-12-04T18:41:30;0.30;99.90
11619;DHT22;5865;48.776;9.280;2023-12-04T18:43:57;0.30;99.90
11619;DHT22;5865;48.776;9.280;2023-12-04T18:46:28;0.40;99.90
11619;DHT22;5865;48.776;9.280;2023-12-04T18:51:23;0.40;99.90
11619;DHT22;5865;48.776;9.280;2023-12-04T18:53:51;0.30;99.90
11619;DHT22;5865;48.776;9.280;2023-12-04T18:56:18;0.30;99.90
11619;DHT22;5865;48.776;9.280;2023-12-04T19:01:14;0.30;99.90
11619;DHT22;5865;48.776;9.280;2023-12-04T19:03:41;0.30;99.90
11619;DHT22;5865;48.776;9.280;2023-12-04T19:06:08;0.40;99.90
11619;DHT22;5865;48.776;9.280;2023-12-04T19:08:36;0.40;99.90
11619;DHT22;5865;48.776;9.280;2023-12-04T19:20:55;0.80;99.90
11619;DHT22;5865;48.776;9.280;2023-12-04T19:25:49;0.80;99.90
11619;DHT22;5865;48.776;9.280;2023-12-04T19:38:08;0.60;99.90
11619;DHT22;5865;48.776;9.280;2023-12-04T19:43:02;0.50;99.90
11619;DHT22;5865;48.776;9.280;2023-12-04T19:45:30;0.60;99.90
11619;DHT22;5865;48.776;9.280;2023-12-04T19:47:57;0.60;99.90
11619;DHT22;5865;48.776;9.280;2023-12-04T19:50:24;0.60;99.90
11619;DHT22;5865;48.776;9.280;2023-12-04T19:55:18;0.60;99.90
11619;DHT22;5865;48.776;9.280;2023-12-04T19:57:45;0.60;99.90
11619;DHT22;5865;48.776;9.280;2023-12-04T20:00:14;0.60;99.90
11619;DHT22;5865;48.776;9.280;2023-12-04T20:02:43;0.70;99.90
11619;DHT22;5865;48.776;9.280;2023-12-04T20:05:11;0.80;99.90
11619;DHT22;5865;48.776;9.280;2023-12-04T20:10:07;0.90;99.90
11619;DHT22;5865;48.776;9.280;2023-12-04T20:12:34;0.90;99.90
11619;DHT22;5865;48.776;9.280;2023-12-04T20:15:01;1.00;99.90
11619;DHT22;5865;48.776;9.280;2023-12-04T20:17:30;1.00;99.90
11619;DHT22;5865;48.776;9.280;2023-12-04T20:19:58;1.00;99.90
11619;DHT22;5865;48.776;9.280;2023-12-04T20:22:25;0.90;99.90
11619;DHT22;5865;48.776;9.280;2023-12-04T20:24:52;1.10;99.90
11619;DHT22;5865;48.776;9.280;2023-12-04T20:27:19;1.10;99.90
11619;DHT22;5865;48.776;9.280;2023-12-04T20:32:14;1.00;99.90
11619;DHT22;5865;48.776;9.280;2023-12-04T20:34:41;1.20;99.90
11619;DHT22;5865;48.776;9.280;2023-12-04T20:37:09;1.10;99.90
11619;DHT22;5865;48.776;9.280;2023-12-04T20:39:36;1.20;99.90
11619;DHT22;5865;48.776;9.280;2023-12-04T20:42:05;1.20;99.90
11619;DHT22;5865;48.776;9.280;2023-12-04T20:44:32;1.20;99.90
11619;DHT22;5865;48.776;9.280;2023-12-04T20:47:00;1.30;99.90
11619;DHT22;5865;48.776;9.280;2023-12-04T20:51:55;1.50;99.90
11619;DHT22;5865;48.776;9.280;2023-12-04T20:54:23;1.70;99.90
11619;DHT22;5865;48.776;9.280;2023-12-04T20:56:50;1.70;99.90
11619;DHT22;5865;48.776;9.280;2023-12-04T21:01:48;1.80;99.90
11619;DHT22;5865;48.776;9.280;2023-12-04T21:04:15;1.80;99.90
11619;DHT22;5865;48.776;9.280;2023-12-04T21:06:41;1.80;99.90
11619;DHT22;5865;48.776;9.280;2023-12-04T21:09:08;1.90;99.90
11619;DHT22;5865;48.776;9.280;2023-12-04T21:11:37;2.00;99.90
11619;DHT22;5865;48.776;9.280;2023-12-04T21:14:05;1.80;99.90
11619;DHT22;5865;48.776;9.280;2023-12-04T21:16:32;1.90;99.90
11619;DHT22;5865;48.776;9.280;2023-12-04T21:19:00;1.90;99.90
11619;DHT22;5865;48.776;9.280;2023-12-04T21:21:27;1.90;99.90
11619;DHT22;5865;48.776;9.280;2023-12-04T21:26:24;1.70;99.90
11619;DHT22;5865;48.776;9.280;2023-12-04T21:28:53;1.60;99.90
11619;DHT22;5865;48.776;9.280;2023-12-04T21:31:25;1.60;99.90
11619;DHT22;5865;48.776;9.280;2023-12-04T21:33:55;1.70;99.90
11619;DHT22;5865;48.776;9.280;2023-12-04T21:48:53;1.60;99.90
11619;DHT22;5865;48.776;9.280;2023-12-04T21:51:22;1.60;99.90
11619;DHT22;5865;48.776;9.280;2023-12-04T21:53:49;1.60;99.90
11619;DHT22;5865;48.776;9.280;2023-12-04T21:56:16;1.60;99.90
11619;DHT22;5865;48.776;9.280;2023-12-04T21:58:43;1.60;99.90
11619;DHT22;5865;48.776;9.280;2023-12-04T22:01:11;1.60;99.90
11619;DHT22;5865;48.776;9.280;2023-12-04T22:03:38;1.60;99.90
11619;DHT22;5865;48.776;9.280;2023-12-04T22:06:06;1.50;99.90
11619;DHT22;5865;48.776;9.280;2023-12-04T22:08:35;1.50;99.90
11619;DHT22;5865;48.776;9.280;2023-12-04T22:18:41;1.40;99.90
11619;DHT22;5865;48.776;9.280;2023-12-04T22:23:53;1.40;99.90
11619;DHT22;5865;48.776;9.280;2023-12-04T22:31:29;1.50;99.90
11619;DHT22;5865;48.776;9.280;2023-12-04T22:41:18;1.40;99.90
11619;DHT22;5865;48.776;9.280;2023-12-04T22:51:08;1.30;99.90
11619;DHT22;5865;48.776;9.280;2023-12-04T22:58:30;1.20;99.90
11619;DHT22;5865;48.776;9.280;2023-12-04T23:03:25;1.30;99.90
11619;DHT22;5865;48.776;9.280;2023-12-04T23:05:53;1.30;99.90
11619;DHT22;5865;48.776;9.280;2023-12-04T23:23:09;1.80;99.90
11619;DHT22;5865;48.776;9.280;2023-12-04T23:38:09;1.70;99.90
11619;DHT22;5865;48.776;9.280;2023-12-04T23:43:05;1.70;99.90
